createdAt,value
2022-07-29T00:01:54.619Z,56.54
2022-07-29T00:04:22.524Z,56.55
2022-07-29T00:06:50.307Z,56.75
2022-07-29T00:09:20.517Z,56.82
2022-07-29T00:11:48.482Z,57.09
2022-07-29T00:14:16.665Z,57.23
2022-07-29T00:16:45.286Z,57.25
2022-07-29T00:19:12.832Z,57.37
2022-07-29T00:21:40.787Z,57.25
2022-07-29T00:24:08.765Z,57.24
2022-07-29T00:26:36.173Z,57.34
2022-07-29T00:29:32.868Z,57.18
2022-07-29T00:31:53.410Z,57.89
2022-07-29T00:34:40.191Z,57.61
2022-07-29T00:43:36.955Z,57.84
2022-07-29T00:46:05.260Z,58.14
2022-07-29T00:48:32.782Z,58.21
2022-07-29T00:51:04.077Z,57.97
2022-07-29T00:53:34.654Z,58.09
2022-07-29T00:56:03.928Z,57.74
2022-07-29T00:58:34.151Z,57.94
2022-07-29T01:01:02.245Z,58.33
2022-07-29T01:03:29.882Z,58.13
2022-07-29T01:05:57.543Z,58.04
2022-07-29T01:08:26.039Z,57.98
2022-07-29T01:10:55.068Z,57.99
2022-07-29T01:13:24.592Z,58.31
2022-07-29T01:16:01.221Z,58.33
2022-07-29T01:18:48.252Z,58.42
2022-07-29T01:21:57.965Z,58.46
2022-07-29T01:25:11.357Z,58.33
2022-07-29T01:28:19.172Z,58.24
2022-07-29T01:30:59.727Z,58.55
2022-07-29T01:33:54.893Z,58.81
2022-07-29T01:36:41.880Z,58.85
2022-07-29T01:42:56.343Z,59.24
2022-07-29T01:46:02.255Z,59.19
2022-07-29T01:48:59.303Z,59.10
2022-07-29T01:51:36.447Z,59.39
2022-07-29T01:54:47.184Z,59.64
2022-07-29T01:57:20.537Z,59.51
2022-07-29T01:59:51.049Z,59.47
2022-07-29T02:02:20.757Z,59.52
2022-07-29T02:07:33.704Z,59.72
2022-07-29T02:13:01.323Z,60.05
2022-07-29T02:37:21.095Z,60.72
2022-07-29T03:15:49.599Z,61.82
2022-07-29T03:18:17.565Z,61.45
2022-07-29T03:20:45.253Z,61.64
2022-07-29T03:23:12.885Z,61.63
2022-07-29T03:25:40.689Z,61.74
2022-07-29T03:28:08.218Z,61.66
2022-07-29T03:30:35.702Z,61.86
2022-07-29T03:33:02.974Z,63.32
2022-07-29T03:38:35.852Z,62.24
2022-07-29T03:41:10.572Z,62.45
2022-07-29T03:43:49.079Z,62.33
2022-07-29T03:46:19.518Z,62.25
2022-07-29T03:48:54.089Z,62.25
2022-07-29T03:51:34.010Z,62.15
2022-07-29T03:54:09.331Z,62.23
2022-07-29T03:56:49.633Z,62.26
2022-07-29T03:59:20.897Z,62.25
2022-07-29T04:01:49.626Z,62.36
2022-07-29T04:04:17.829Z,62.31
2022-07-29T04:06:48.320Z,62.04
2022-07-29T04:09:16.332Z,62.39
2022-07-29T04:12:02.104Z,62.52
2022-07-29T04:14:33.256Z,62.64
2022-07-29T04:17:02.059Z,63.02
2022-07-29T04:19:29.681Z,62.51
2022-07-29T04:21:57.506Z,62.65
2022-07-29T04:24:24.901Z,62.69
2022-07-29T04:26:52.306Z,62.94
2022-07-29T04:29:19.747Z,62.61
2022-07-29T04:31:47.293Z,63.07
2022-07-29T04:34:16.196Z,62.85
2022-07-29T04:36:43.818Z,62.73
2022-07-29T04:39:11.418Z,62.85
2022-07-29T04:41:38.834Z,62.90
2022-07-29T04:44:07.046Z,62.30
2022-07-29T04:46:35.887Z,62.34
2022-07-29T04:49:04.609Z,62.56
2022-07-29T04:51:32.661Z,62.91
2022-07-29T04:54:00.117Z,62.95
2022-07-29T04:56:27.914Z,62.26
2022-07-29T04:58:55.674Z,62.54
2022-07-29T05:01:23.173Z,62.81
2022-07-29T05:03:50.732Z,62.64
2022-07-29T05:06:18.095Z,62.26
2022-07-29T05:08:45.613Z,62.02
2022-07-29T05:11:15.863Z,62.09
2022-07-29T05:13:47.087Z,61.57
2022-07-29T05:16:15.572Z,61.13
2022-07-29T05:18:43.397Z,62.08
2022-07-29T05:21:10.963Z,60.82
2022-07-29T05:23:38.418Z,61.44
2022-07-29T05:26:05.813Z,61.02
2022-07-29T05:28:36.427Z,60.26
2022-07-29T05:31:04.267Z,60.32
2022-07-29T05:33:34.625Z,60.16
2022-07-29T05:36:08.452Z,58.79
2022-07-29T05:38:37.162Z,59.79
2022-07-29T05:41:06.294Z,58.99
2022-07-29T05:43:34.899Z,59.20
2022-07-29T05:46:03.559Z,57.97
2022-07-29T05:48:30.924Z,59.01
2022-07-29T05:50:59.249Z,58.15
2022-07-29T05:53:26.782Z,58.23
2022-07-29T05:55:54.473Z,58.93
2022-07-29T05:58:22.705Z,57.68
2022-07-29T06:00:51.219Z,58.75
2022-07-29T06:03:19.305Z,57.38
2022-07-29T06:05:46.991Z,56.76
2022-07-29T06:08:15.361Z,56.52
2022-07-29T06:10:42.919Z,56.67
2022-07-29T06:13:10.776Z,56.58
2022-07-29T06:15:43.055Z,56.08
2022-07-29T06:18:11.394Z,56.35
2022-07-29T06:20:39.246Z,55.85
2022-07-29T06:23:07.204Z,57.22
2022-07-29T06:25:37.213Z,55.56
2022-07-29T06:28:05.706Z,54.74
2022-07-29T06:30:34.647Z,56.55
2022-07-29T06:33:03.282Z,56.24
2022-07-29T06:35:37.524Z,54.89
2022-07-29T06:38:12.068Z,55.82
2022-07-29T06:41:01.484Z,55.75
2022-07-29T06:43:50.557Z,54.58
2022-07-29T06:46:20.989Z,54.68
2022-07-29T06:48:50.299Z,55.20
2022-07-29T06:51:22.367Z,54.76
2022-07-29T06:54:01.653Z,54.60
2022-07-29T06:56:39.004Z,53.62
2022-07-29T06:59:09.398Z,53.60
2022-07-29T07:01:45.083Z,53.08
2022-07-29T07:04:13.288Z,52.76
2022-07-29T07:06:41.409Z,51.06
2022-07-29T07:09:09.112Z,52.52
2022-07-29T07:11:36.751Z,51.18
2022-07-29T07:14:04.578Z,51.04
2022-07-29T07:16:33.410Z,50.35
2022-07-29T07:19:01.726Z,50.42
2022-07-29T07:21:30.707Z,50.27
2022-07-29T07:23:59.645Z,50.60
2022-07-29T07:26:28.199Z,49.34
2022-07-29T07:28:55.774Z,48.93
2022-07-29T07:31:23.663Z,49.41
2022-07-29T07:33:51.059Z,49.65
2022-07-29T07:36:18.562Z,49.72
2022-07-29T07:38:46.155Z,50.15
2022-07-29T07:41:13.815Z,48.01
2022-07-29T07:43:41.613Z,48.38
2022-07-29T07:46:09.287Z,46.47
2022-07-29T07:48:37.269Z,46.75
2022-07-29T07:51:04.832Z,46.84
2022-07-29T07:53:32.462Z,47.93
2022-07-29T07:56:15.484Z,47.02
2022-07-29T07:58:43.336Z,46.61
2022-07-29T08:01:11.586Z,44.94
2022-07-29T08:03:40.058Z,46.33
2022-07-29T08:06:08.203Z,47.12
2022-07-29T08:08:35.718Z,46.46
2022-07-29T08:11:09.046Z,47.16
2022-07-29T08:13:38.889Z,47.56
2022-07-29T08:16:14.219Z,47.03
2022-07-29T08:18:45.115Z,46.87
2022-07-29T08:21:14.919Z,45.54
2022-07-29T08:23:52.765Z,45.32
2022-07-29T08:26:25.625Z,44.89
2022-07-29T08:28:53.584Z,44.47
2022-07-29T08:31:21.634Z,43.63
2022-07-29T08:33:49.473Z,42.80
2022-07-29T08:36:17.381Z,42.79
2022-07-29T08:38:45.010Z,42.81
2022-07-29T08:41:13.581Z,44.20
2022-07-29T08:43:42.962Z,43.24
2022-07-29T08:46:10.948Z,43.57
2022-07-29T08:48:39.579Z,43.50
2022-07-29T08:51:10.901Z,42.97
2022-07-29T08:53:39.313Z,41.93
2022-07-29T08:56:09.117Z,43.34
2022-07-29T08:58:38.345Z,42.58
2022-07-29T09:01:07.533Z,43.01
2022-07-29T09:03:43.005Z,41.49
2022-07-29T09:06:13.111Z,40.55
2022-07-29T09:08:41.996Z,41.38
2022-07-29T09:11:12.651Z,42.26
2022-07-29T09:13:43.006Z,40.20
2022-07-29T09:16:11.957Z,40.97
2022-07-29T09:18:43.220Z,40.84
2022-07-29T09:21:36.068Z,39.84
2022-07-29T09:24:11.566Z,40.04
2022-07-29T09:26:43.417Z,39.89
2022-07-29T09:29:17.443Z,39.75
2022-07-29T09:31:52.037Z,40.05
2022-07-29T09:34:33.815Z,39.49
2022-07-29T09:37:01.541Z,39.94
2022-07-29T09:39:47.335Z,39.47
2022-07-29T09:42:16.835Z,38.12
2022-07-29T09:44:49.694Z,39.18
2022-07-29T09:47:19.925Z,39.27
2022-07-29T09:49:59.292Z,39.01
2022-07-29T09:52:33.826Z,39.20
2022-07-29T09:55:10.488Z,37.98
2022-07-29T09:57:47.650Z,38.87
2022-07-29T10:00:21.353Z,39.21
2022-07-29T10:02:50.790Z,39.05
2022-07-29T10:05:36.755Z,38.36
2022-07-29T10:08:06.344Z,38.33
2022-07-29T10:10:40.311Z,37.92
2022-07-29T10:13:16.110Z,36.56
2022-07-29T10:15:47.980Z,37.16
2022-07-29T10:18:18.627Z,38.41
2022-07-29T10:20:49.424Z,38.62
2022-07-29T10:23:17.272Z,38.44
2022-07-29T10:25:46.829Z,37.95
2022-07-29T10:28:16.812Z,37.87
2022-07-29T10:30:48.272Z,37.87
2022-07-29T10:33:38.963Z,37.28
2022-07-29T10:36:21.471Z,38.25
2022-07-29T10:39:13.189Z,37.89
2022-07-29T10:42:09.188Z,37.71
2022-07-29T10:44:40.972Z,38.11
2022-07-29T10:47:10.787Z,38.11
2022-07-29T10:49:41.206Z,39.39
2022-07-29T10:52:11.741Z,39.71
2022-07-29T10:54:44.224Z,39.64
2022-07-29T10:57:18.029Z,38.93
2022-07-29T10:59:48.838Z,39.36
2022-07-29T11:02:40.989Z,38.37
2022-07-29T11:05:20.613Z,38.40
2022-07-29T11:08:20.188Z,38.25
2022-07-29T11:10:50.745Z,38.85
2022-07-29T11:13:49.378Z,38.25
2022-07-29T11:16:20.209Z,38.57
2022-07-29T11:19:30.075Z,38.84
2022-07-29T11:21:59.226Z,38.28
2022-07-29T11:24:35.675Z,38.06
2022-07-29T11:27:21.247Z,37.81
2022-07-29T11:29:54.382Z,37.73
2022-07-29T11:32:25.560Z,37.67
2022-07-29T11:35:38.101Z,38.01
2022-07-29T11:38:32.026Z,38.55
2022-07-29T11:41:25.590Z,38.58
2022-07-29T11:44:00.612Z,38.66
2022-07-29T11:46:53.865Z,38.67
2022-07-29T11:52:15.293Z,39.05
2022-07-29T11:57:37.601Z,39.28
2022-07-29T12:00:12.443Z,38.64
2022-07-29T12:02:48.059Z,38.75
2022-07-29T12:05:35.849Z,39.86
2022-07-29T12:07:02.300Z,39.69
2022-07-29T12:08:20.890Z,39.64
2022-07-29T12:10:50.901Z,39.80
2022-07-29T12:13:37.441Z,40.34
2022-07-29T12:16:06.141Z,39.24
2022-07-29T12:18:34.048Z,40.00
2022-07-29T12:21:07.103Z,39.99
2022-07-29T12:23:35.595Z,39.08
2022-07-29T12:26:11.134Z,41.08
2022-07-29T12:28:51.550Z,39.32
2022-07-29T12:31:43.848Z,40.40
2022-07-29T12:34:07.312Z,40.15
2022-07-29T12:36:34.959Z,39.04
2022-07-29T12:39:02.923Z,39.58
2022-07-29T12:41:31.865Z,39.53
2022-07-29T12:43:59.554Z,39.89
2022-07-29T12:46:28.425Z,39.44
2022-07-29T12:48:57.884Z,38.99
2022-07-29T12:51:34.298Z,38.83
2022-07-29T12:54:16.829Z,40.34
2022-07-29T12:56:46.868Z,39.48
2022-07-29T12:59:19.562Z,38.38
2022-07-29T13:01:51.469Z,38.05
2022-07-29T13:04:37.950Z,38.60
2022-07-29T13:07:10.524Z,38.03
2022-07-29T13:09:47.666Z,38.78
2022-07-29T13:12:17.240Z,37.93
2022-07-29T13:14:51.731Z,38.86
2022-07-29T13:17:32.814Z,36.89
2022-07-29T13:20:13.586Z,38.08
2022-07-29T13:22:43.493Z,39.13
2022-07-29T13:25:12.631Z,38.43
2022-07-29T13:27:42.099Z,38.90
2022-07-29T13:30:12.005Z,38.94
2022-07-29T13:32:40.965Z,38.63
2022-07-29T13:35:11.256Z,38.44
2022-07-29T13:37:42.298Z,39.25
2022-07-29T13:40:13.780Z,36.62
2022-07-29T13:43:01.097Z,37.36
2022-07-29T13:45:29.395Z,37.24
2022-07-29T13:47:57.206Z,37.72
2022-07-29T13:50:24.953Z,39.30
2022-07-29T13:52:55.241Z,38.82
2022-07-29T13:55:22.932Z,39.06
2022-07-29T13:57:58.161Z,38.51
2022-07-29T14:00:27.334Z,38.01
2022-07-29T14:02:55.711Z,38.96
2022-07-29T14:05:25.628Z,39.36
2022-07-29T14:07:59.169Z,39.81
2022-07-29T14:10:28.835Z,38.61
2022-07-29T14:12:56.534Z,39.30
2022-07-29T14:15:26.070Z,39.30
2022-07-29T14:17:56.330Z,39.26
2022-07-29T14:20:25.575Z,39.50
2022-07-29T14:22:53.570Z,38.41
2022-07-29T14:25:25.055Z,39.19
2022-07-29T14:30:24.577Z,38.66
2022-07-29T14:32:53.467Z,39.22
2022-07-29T14:35:29.555Z,39.22
2022-07-29T14:38:03.360Z,38.93
2022-07-29T14:40:38.053Z,38.89
2022-07-29T14:43:07.428Z,39.20
2022-07-29T14:45:36.310Z,39.37
2022-07-29T14:48:04.888Z,39.88
2022-07-29T14:50:33.736Z,39.41
2022-07-29T14:53:18.498Z,40.26
2022-07-29T14:55:47.382Z,40.04
2022-07-29T14:58:51.687Z,39.87
2022-07-29T15:01:22.018Z,40.31
2022-07-29T15:04:10.716Z,39.91
2022-07-29T15:06:56.370Z,40.54
2022-07-29T15:09:32.590Z,40.82
2022-07-29T15:15:03.550Z,40.20
2022-07-29T15:17:34.511Z,40.24
2022-07-29T15:20:06.582Z,40.35
2022-07-29T15:22:36.185Z,40.15
2022-07-29T15:25:17.817Z,40.01
2022-07-29T15:27:49.714Z,39.80
2022-07-29T15:30:32.448Z,40.43
2022-07-29T15:33:06.251Z,40.55
2022-07-29T15:35:40.251Z,40.24
2022-07-29T15:38:09.356Z,40.07
2022-07-29T15:40:47.354Z,39.95
2022-07-29T15:43:19.155Z,39.69
2022-07-29T15:46:11.863Z,39.78
2022-07-29T15:48:58.951Z,39.97
2022-07-29T15:51:36.186Z,39.62
2022-07-29T15:54:06.687Z,40.54
2022-07-29T15:56:37.105Z,40.11
2022-07-29T15:59:04.747Z,39.93
2022-07-29T16:01:36.929Z,39.26
2022-07-29T16:04:11.176Z,41.03
2022-07-29T16:06:38.859Z,41.25
2022-07-29T16:09:10.548Z,42.51
2022-07-29T16:11:39.352Z,43.11
2022-07-29T16:14:12.830Z,43.29
2022-07-29T16:16:43.761Z,43.60
2022-07-29T16:19:13.410Z,43.37
2022-07-29T16:21:44.398Z,43.72
2022-07-29T16:24:13.471Z,43.35
2022-07-29T16:27:09.561Z,43.83
2022-07-29T16:29:46.842Z,43.67
2022-07-29T16:32:22.784Z,43.64
2022-07-29T16:34:53.072Z,44.28
2022-07-29T16:37:23.703Z,44.18
2022-07-29T16:39:52.779Z,44.76
2022-07-29T16:42:44.420Z,44.20
2022-07-29T16:45:16.189Z,42.12
2022-07-29T16:47:46.576Z,41.53
2022-07-29T16:50:17.352Z,40.04
2022-07-29T16:52:45.571Z,40.99
2022-07-29T16:55:17.321Z,41.70
2022-07-29T16:57:51.079Z,42.49
2022-07-29T17:00:26.321Z,42.25
2022-07-29T17:03:06.773Z,41.40
2022-07-29T17:05:54.226Z,40.98
2022-07-29T17:08:37.891Z,40.92
2022-07-29T17:11:17.408Z,40.70
2022-07-29T17:13:48.989Z,40.59
2022-07-29T17:16:35.336Z,40.80
2022-07-29T17:19:11.619Z,40.87
2022-07-29T17:21:46.719Z,41.36
2022-07-29T17:24:20.484Z,42.38
2022-07-29T17:26:52.911Z,42.14
2022-07-29T17:29:27.558Z,42.84
2022-07-29T17:34:46.833Z,44.83
2022-07-29T17:37:23.536Z,46.46
2022-07-29T17:40:00.566Z,45.94
2022-07-29T17:42:37.625Z,46.25
2022-07-29T17:45:11.928Z,47.76
2022-07-29T17:47:45.782Z,47.39
2022-07-29T17:50:16.258Z,46.63
2022-07-29T17:52:45.348Z,47.23
2022-07-29T17:55:14.610Z,47.05
2022-07-29T17:57:44.778Z,47.64
2022-07-29T18:00:25.760Z,47.54
2022-07-29T18:03:13.464Z,47.71
2022-07-29T18:05:44.283Z,47.65
2022-07-29T18:08:13.712Z,48.00
2022-07-29T18:10:44.561Z,47.94
2022-07-29T18:13:14.077Z,49.04
2022-07-29T18:15:43.211Z,48.64
2022-07-29T18:18:11.103Z,48.99
2022-07-29T18:20:39.776Z,49.09
2022-07-29T18:23:12.552Z,49.43
2022-07-29T18:25:47.091Z,49.46
2022-07-29T18:28:15.768Z,50.55
2022-07-29T18:30:52.623Z,50.89
2022-07-29T18:33:23.184Z,51.13
2022-07-29T18:36:04.249Z,51.45
2022-07-29T18:38:43.072Z,51.77
2022-07-29T18:41:12.296Z,52.09
2022-07-29T18:43:39.980Z,51.72
2022-07-29T18:46:08.956Z,53.51
2022-07-29T18:48:36.731Z,54.92
2022-07-29T18:51:09.137Z,60.57
2022-07-29T18:53:37.714Z,61.82
2022-07-29T18:56:05.617Z,63.04
2022-07-29T18:58:33.629Z,64.56
2022-07-29T19:01:02.036Z,65.21
2022-07-29T19:03:29.369Z,64.64
2022-07-29T19:05:56.876Z,62.56
2022-07-29T19:08:24.151Z,61.68
2022-07-29T19:10:52.520Z,62.80
2022-07-29T19:13:19.862Z,63.23
2022-07-29T19:15:47.328Z,64.13
2022-07-29T19:18:14.700Z,63.29
2022-07-29T19:20:42.244Z,64.89
2022-07-29T19:23:09.667Z,62.99
2022-07-29T19:25:37.567Z,64.14
2022-07-29T19:28:21.641Z,63.85
2022-07-29T19:30:49.445Z,65.68
2022-07-29T19:33:17.761Z,65.68
2022-07-29T19:35:49.302Z,64.10
2022-07-29T19:38:18.811Z,64.68
2022-07-29T19:40:46.244Z,65.30
2022-07-29T19:43:52.242Z,66.81
2022-07-29T19:46:01.288Z,66.88
2022-07-29T19:48:28.832Z,65.97
2022-07-29T19:50:56.225Z,67.34
2022-07-29T19:53:23.675Z,66.80
2022-07-29T19:55:51.139Z,66.78
2022-07-29T19:58:18.439Z,66.50
2022-07-29T20:00:49.802Z,66.64
2022-07-29T20:03:17.237Z,66.96
2022-07-29T20:05:48.023Z,67.89
2022-07-29T20:08:15.719Z,67.80
2022-07-29T20:10:43.316Z,67.74
2022-07-29T20:13:11.009Z,66.78
2022-07-29T20:15:38.527Z,66.66
2022-07-29T20:18:06.310Z,67.27
2022-07-29T20:20:33.721Z,67.83
2022-07-29T20:23:02.387Z,69.83
2022-07-29T20:25:29.824Z,67.78
2022-07-29T20:27:57.176Z,68.31
2022-07-29T20:30:24.837Z,66.70
2022-07-29T20:32:52.194Z,68.81
2022-07-29T20:35:20.191Z,68.52
2022-07-29T20:37:52.380Z,68.19
2022-07-29T20:40:24.263Z,66.94
2022-07-29T20:42:52.105Z,67.83
2022-07-29T20:45:20.194Z,67.12
2022-07-29T20:47:47.616Z,67.82
2022-07-29T20:50:15.088Z,67.28
2022-07-29T20:52:44.143Z,69.46
2022-07-29T20:55:12.149Z,68.23
2022-07-29T20:57:40.125Z,68.92
2022-07-29T21:00:09.271Z,68.73
2022-07-29T21:02:36.893Z,68.00
2022-07-29T21:05:05.529Z,68.04
2022-07-29T21:07:32.852Z,68.10
2022-07-29T21:10:00.315Z,69.72
2022-07-29T21:12:30.060Z,68.92
2022-07-29T21:14:57.933Z,70.09
2022-07-29T21:17:25.378Z,68.79
2022-07-29T21:19:53.679Z,69.07
2022-07-29T21:22:22.380Z,69.56
2022-07-29T21:24:50.855Z,68.26
2022-07-29T21:27:38.273Z,68.38
2022-07-29T21:30:08.505Z,68.83
2022-07-29T21:32:36.082Z,69.31
2022-07-29T21:35:14.501Z,70.45
2022-07-29T21:37:51.649Z,69.41
2022-07-29T21:40:19.039Z,69.20
2022-07-29T21:42:46.414Z,69.10
2022-07-29T21:45:13.994Z,68.87
2022-07-29T21:47:41.380Z,68.89
2022-07-29T21:50:09.115Z,68.46
2022-07-29T21:52:36.580Z,70.45
2022-07-29T21:55:05.169Z,69.37
2022-07-29T21:57:32.691Z,69.67
2022-07-29T22:00:02.969Z,70.96
2022-07-29T22:02:30.678Z,69.61
2022-07-29T22:04:58.052Z,70.30
2022-07-29T22:07:25.457Z,70.73
2022-07-29T22:10:12.959Z,69.36
2022-07-29T22:12:40.369Z,70.03
2022-07-29T22:15:09.008Z,70.32
2022-07-29T22:17:38.208Z,69.57
2022-07-29T22:20:06.544Z,69.68
2022-07-29T22:22:33.882Z,70.41
2022-07-29T22:25:01.180Z,70.59
2022-07-29T22:27:28.629Z,69.56
2022-07-29T22:29:55.924Z,69.82
2022-07-29T22:32:23.302Z,69.55
2022-07-29T22:34:50.659Z,70.11
2022-07-29T22:37:18.317Z,69.62
2022-07-29T22:39:45.744Z,69.76
2022-07-29T22:42:13.112Z,69.30
2022-07-29T22:44:40.439Z,69.57
2022-07-29T22:47:07.917Z,69.49
2022-07-29T22:49:35.281Z,69.54
2022-07-29T22:52:02.590Z,69.10
2022-07-29T22:54:30.240Z,69.39
2022-07-29T22:56:57.700Z,69.71
2022-07-29T22:59:25.141Z,68.98
2022-07-29T23:01:52.433Z,69.43
2022-07-29T23:04:23.748Z,69.90
2022-07-29T23:06:51.463Z,69.36
2022-07-29T23:09:19.076Z,68.92
2022-07-29T23:11:47.255Z,69.53
2022-07-29T23:14:14.622Z,69.21
2022-07-29T23:16:42.056Z,70.76
2022-07-29T23:19:09.633Z,69.86
2022-07-29T23:21:37.110Z,69.71
2022-07-29T23:24:04.656Z,69.09
2022-07-29T23:26:32.132Z,69.90
2022-07-29T23:28:59.425Z,69.97
2022-07-29T23:31:26.857Z,70.55
2022-07-29T23:33:54.196Z,69.71
2022-07-29T23:36:21.862Z,69.49
2022-07-29T23:38:49.438Z,68.86
2022-07-29T23:41:16.831Z,69.04
2022-07-29T23:43:44.285Z,69.23
2022-07-29T23:46:11.666Z,70.03
2022-07-29T23:48:39.296Z,69.47
2022-07-29T23:51:06.866Z,69.44
2022-07-29T23:53:53.451Z,69.12
2022-07-29T23:56:21.712Z,69.64
2022-07-29T23:58:49.029Z,69.01
